createdAt,value
2022-09-21T04:15:51.861Z,1.38
2022-09-21T04:18:18.791Z,2.00
2022-09-21T04:20:45.352Z,1.83
2022-09-21T04:23:11.811Z,1.75
2022-09-21T04:25:38.250Z,1.88
2022-09-21T04:28:04.734Z,2.65
2022-09-21T04:30:34.323Z,2.22
2022-09-21T04:33:05.025Z,1.77
2022-09-21T04:35:31.583Z,2.05
2022-09-21T04:37:58.017Z,2.50
2022-09-21T04:40:24.579Z,1.80
2022-09-21T04:42:55.091Z,1.70
2022-09-21T04:45:22.815Z,1.85
2022-09-21T04:47:49.638Z,1.42
2022-09-21T04:50:16.394Z,1.40
2022-09-21T04:52:42.869Z,1.30
2022-09-21T04:55:09.428Z,1.77
2022-09-21T04:57:36.197Z,1.77
2022-09-21T05:00:05.492Z,1.35
2022-09-21T05:02:31.993Z,1.98
2022-09-21T05:05:00.510Z,2.10
2022-09-21T05:08:03.373Z,2.38
2022-09-21T05:10:30.461Z,1.75
2022-09-21T05:13:02.990Z,2.00
2022-09-21T05:15:29.536Z,1.58
2022-09-21T05:17:56.028Z,1.90
2022-09-21T05:20:24.526Z,2.00
2022-09-21T05:22:51.021Z,1.73
2022-09-21T05:25:17.635Z,2.13
2022-09-21T05:27:44.051Z,1.58
2022-09-21T05:30:11.264Z,2.75
2022-09-21T05:32:48.814Z,1.60
2022-09-21T05:35:54.145Z,2.30
2022-09-21T05:38:20.912Z,1.73
2022-09-21T05:40:48.197Z,1.92
2022-09-21T05:43:16.565Z,2.10
2022-09-21T05:45:50.227Z,2.63
2022-09-21T05:48:21.024Z,1.90
2022-09-21T05:51:04.091Z,2.20
2022-09-21T05:53:48.487Z,3.05
2022-09-21T05:56:39.620Z,3.05
2022-09-21T05:59:42.987Z,2.45
2022-09-21T06:02:23.448Z,4.10
2022-09-21T06:04:55.870Z,3.92
2022-09-21T06:07:24.936Z,5.10
2022-09-21T06:09:53.807Z,4.22
2022-09-21T06:12:20.338Z,4.00
2022-09-21T06:14:46.775Z,4.35
2022-09-21T06:17:15.310Z,3.78
2022-09-21T06:19:41.740Z,4.18
2022-09-21T06:22:08.200Z,4.35
2022-09-21T06:24:34.814Z,4.38
2022-09-21T06:27:01.319Z,4.85
2022-09-21T06:29:27.817Z,3.50
2022-09-21T06:32:20.992Z,3.70
2022-09-21T06:34:47.481Z,3.65
2022-09-21T06:37:13.934Z,4.63
2022-09-21T06:39:40.347Z,3.58
2022-09-21T06:42:29.966Z,3.50
2022-09-21T06:44:56.368Z,3.10
2022-09-21T06:47:22.905Z,3.13
2022-09-21T06:49:49.315Z,3.33
2022-09-21T06:52:15.734Z,4.40
2022-09-21T06:54:42.391Z,3.03
2022-09-21T06:57:08.914Z,4.05
2022-09-21T06:59:39.063Z,2.85
2022-09-21T07:02:06.135Z,3.00
2022-09-21T07:04:32.660Z,2.65
2022-09-21T07:07:01.819Z,2.42
2022-09-21T07:10:14.577Z,2.60
2022-09-21T07:12:41.681Z,2.30
2022-09-21T07:15:10.176Z,2.38
2022-09-21T07:17:38.766Z,2.65
2022-09-21T07:20:07.759Z,2.83
2022-09-21T07:22:35.096Z,2.53
2022-09-21T07:25:01.624Z,2.75
2022-09-21T07:27:29.582Z,3.67
2022-09-21T07:29:56.120Z,2.65
2022-09-21T07:32:22.657Z,3.03
2022-09-21T07:34:49.067Z,3.17
2022-09-21T07:37:16.160Z,2.88
2022-09-21T07:39:42.701Z,2.92
2022-09-21T07:42:09.213Z,3.03
2022-09-21T07:44:42.959Z,3.60
2022-09-21T07:47:09.416Z,2.70
2022-09-21T07:49:36.291Z,2.80
2022-09-21T07:52:04.988Z,2.83
2022-09-21T07:54:34.853Z,2.55
2022-09-21T07:57:19.981Z,2.83
2022-09-21T07:59:47.500Z,2.63
2022-09-21T08:02:14.070Z,2.08
2022-09-21T08:04:40.611Z,2.53
2022-09-21T08:07:07.046Z,2.50
2022-09-21T08:09:33.530Z,2.30
2022-09-21T08:12:01.420Z,2.60
2022-09-21T08:14:29.342Z,2.30
2022-09-21T08:16:55.808Z,2.05
2022-09-21T08:19:25.813Z,3.10
2022-09-21T08:21:57.137Z,1.98
2022-09-21T08:24:26.490Z,1.90
2022-09-21T08:26:53.033Z,1.90
2022-09-21T08:29:19.710Z,1.65
2022-09-21T08:31:46.880Z,1.45
2022-09-21T08:34:14.133Z,1.70
2022-09-21T08:36:47.197Z,2.20
2022-09-21T08:39:15.324Z,1.73
2022-09-21T08:42:02.300Z,1.80
2022-09-21T08:44:40.485Z,1.95
2022-09-21T08:47:14.923Z,1.60
2022-09-21T08:49:47.484Z,1.85
2022-09-21T08:52:17.905Z,2.25
2022-09-21T08:54:54.688Z,1.73
2022-09-21T08:57:26.524Z,1.92
2022-09-21T08:59:53.039Z,1.55
2022-09-21T09:02:38.877Z,1.63
2022-09-21T09:05:18.383Z,1.95
2022-09-21T09:08:02.263Z,1.48
2022-09-21T09:10:43.006Z,1.77
2022-09-21T09:13:40.066Z,1.42
2022-09-21T09:16:25.543Z,1.52
2022-09-21T09:19:00.264Z,1.35
2022-09-21T09:21:39.285Z,1.30
2022-09-21T09:24:15.032Z,1.13
2022-09-21T09:26:53.000Z,1.05
2022-09-21T09:29:31.819Z,1.75
2022-09-21T09:32:00.970Z,1.35
2022-09-21T09:34:31.673Z,1.27
2022-09-21T09:37:19.713Z,1.50
2022-09-21T09:39:54.154Z,1.02
2022-09-21T09:42:35.942Z,1.02
2022-09-21T09:45:28.503Z,1.35
2022-09-21T09:48:09.919Z,1.23
2022-09-21T09:50:39.651Z,0.80
2022-09-21T09:53:24.466Z,1.50
2022-09-21T09:56:14.848Z,0.60
2022-09-21T09:58:54.826Z,1.15
2022-09-21T10:01:43.525Z,1.00
2022-09-21T10:04:17.598Z,1.08
2022-09-21T10:06:46.833Z,0.70
2022-09-21T10:09:31.613Z,0.70
2022-09-21T10:12:02.343Z,0.60
2022-09-21T10:14:35.015Z,0.85
2022-09-21T10:17:15.971Z,1.02
2022-09-21T10:19:42.780Z,0.50
2022-09-21T10:22:16.804Z,1.08
2022-09-21T10:24:51.388Z,0.57
2022-09-21T10:27:24.632Z,1.10
2022-09-21T10:29:53.259Z,0.63
2022-09-21T10:32:26.439Z,0.52
2022-09-21T10:35:05.967Z,0.73
2022-09-21T10:38:12.186Z,1.02
2022-09-21T10:40:39.805Z,0.80
2022-09-21T10:43:20.489Z,2.67
2022-09-21T10:45:54.911Z,1.02
2022-09-21T10:48:23.530Z,0.90
2022-09-21T10:50:51.732Z,0.80
2022-09-21T10:53:28.462Z,0.70
2022-09-21T10:56:18.645Z,1.60
2022-09-21T10:59:12.623Z,0.93
2022-09-21T11:01:47.165Z,1.75
2022-09-21T11:04:41.601Z,0.93
2022-09-21T11:07:15.212Z,0.75
2022-09-21T11:09:57.164Z,0.60
2022-09-21T11:12:53.782Z,0.52
2022-09-21T11:15:31.010Z,0.47
2022-09-21T11:18:11.416Z,0.82
2022-09-21T11:21:09.284Z,0.40
2022-09-21T11:24:03.115Z,0.50
2022-09-21T11:26:54.605Z,0.65
2022-09-21T11:29:27.640Z,0.68
2022-09-21T11:32:11.661Z,0.70
2022-09-21T11:34:50.256Z,0.43
2022-09-21T11:37:38.915Z,0.45
2022-09-21T11:40:24.547Z,0.50
2022-09-21T11:43:24.140Z,0.40
2022-09-21T11:46:08.421Z,0.50
2022-09-21T11:48:54.055Z,0.20
2022-09-21T11:51:58.759Z,0.60
2022-09-21T11:55:28.428Z,0.30
2022-09-21T11:58:03.084Z,0.30
2022-09-21T12:04:46.221Z,0.40
2022-09-21T12:07:33.561Z,0.47
2022-09-21T12:10:06.257Z,0.52
2022-09-21T12:13:02.730Z,0.85
2022-09-21T12:15:56.093Z,0.68
2022-09-21T12:18:45.501Z,0.30
2022-09-21T12:21:24.024Z,0.40
2022-09-21T12:24:02.676Z,0.70
2022-09-21T12:26:38.973Z,0.43
2022-09-21T12:29:21.609Z,0.50
2022-09-21T12:31:55.000Z,0.50
2022-09-21T12:34:27.114Z,0.40
2022-09-21T12:37:02.543Z,0.40
2022-09-21T12:40:36.542Z,0.40
2022-09-21T12:43:14.018Z,0.20
2022-09-21T12:45:53.602Z,0.47
2022-09-21T12:48:31.773Z,1.27
2022-09-21T12:55:45.424Z,0.52
2022-09-21T13:01:37.644Z,0.57
2022-09-21T13:04:22.278Z,0.40
2022-09-21T13:06:58.509Z,0.43
2022-09-21T13:09:26.942Z,0.50
2022-09-21T13:12:06.894Z,0.40
2022-09-21T13:14:36.251Z,1.30
2022-09-21T13:17:05.874Z,0.90
2022-09-21T13:19:34.602Z,0.43
2022-09-21T13:22:22.731Z,0.40
2022-09-21T13:25:15.031Z,0.20
2022-09-21T13:28:19.627Z,0.70
2022-09-21T13:31:40.323Z,0.35
2022-09-21T13:34:22.004Z,0.35
2022-09-21T13:37:14.315Z,0.40
2022-09-21T13:39:43.748Z,0.60
2022-09-21T13:42:34.730Z,0.47
2022-09-21T13:45:13.566Z,0.40
2022-09-21T13:47:48.026Z,0.40
2022-09-21T13:50:38.585Z,0.40
2022-09-21T13:53:09.846Z,0.90
2022-09-21T13:55:49.074Z,0.80
2022-09-21T13:58:26.997Z,0.60
2022-09-21T14:01:09.877Z,0.30
2022-09-21T14:06:30.891Z,0.63
2022-09-21T14:09:01.222Z,0.40
2022-09-21T14:11:59.180Z,0.80
2022-09-21T14:15:26.867Z,0.65
2022-09-21T14:18:16.284Z,0.40
2022-09-21T14:21:17.627Z,0.60
2022-09-21T14:24:06.177Z,0.30
2022-09-21T14:26:41.737Z,0.60
2022-09-21T14:29:17.590Z,0.40
2022-09-21T14:31:44.393Z,0.30
2022-09-21T14:34:24.614Z,0.90
2022-09-21T14:36:55.942Z,1.55
2022-09-21T14:39:35.033Z,0.28
2022-09-21T14:42:12.399Z,0.50
2022-09-21T14:44:42.470Z,0.43
2022-09-21T14:47:28.581Z,0.40
2022-09-21T14:50:37.551Z,0.20
2022-09-21T14:53:29.161Z,0.30
2022-09-21T14:56:29.952Z,0.60
2022-09-21T14:59:30.636Z,1.58
2022-09-21T15:02:17.572Z,0.60
2022-09-21T15:05:00.868Z,0.50
2022-09-21T15:08:05.804Z,0.25
2022-09-21T15:10:56.828Z,0.40
2022-09-21T15:13:52.425Z,0.60
2022-09-21T15:16:39.114Z,0.40
2022-09-21T15:19:20.536Z,0.30
2022-09-21T15:22:23.305Z,0.20
2022-09-21T15:24:55.641Z,0.40
2022-09-21T15:27:33.046Z,0.25
2022-09-21T15:30:02.026Z,1.52
2022-09-21T15:32:36.836Z,0.77
2022-09-21T15:35:18.532Z,0.30
2022-09-21T15:37:45.855Z,0.43
2022-09-21T15:40:22.759Z,0.40
2022-09-21T15:43:19.432Z,0.60
2022-09-21T15:45:51.644Z,0.40
2022-09-21T15:48:20.583Z,0.38
2022-09-21T15:50:52.879Z,0.70
2022-09-21T15:53:24.677Z,0.57
2022-09-21T15:55:52.538Z,0.25
2022-09-21T15:58:40.420Z,0.47
2022-09-21T16:01:14.222Z,0.30
2022-09-21T16:03:41.982Z,0.88
2022-09-21T16:06:27.898Z,0.68
2022-09-21T16:09:37.389Z,0.40
2022-09-21T16:12:26.380Z,0.70
2022-09-21T16:14:53.882Z,0.30
2022-09-21T16:17:28.876Z,0.50
2022-09-21T16:19:55.329Z,0.47
2022-09-21T16:22:31.056Z,0.32
2022-09-21T16:25:00.755Z,0.40
2022-09-21T16:27:31.874Z,0.40
2022-09-21T16:30:01.124Z,0.30
2022-09-21T16:32:29.836Z,0.20
2022-09-21T16:35:29.304Z,0.50
2022-09-21T16:37:58.635Z,0.40
2022-09-21T16:40:26.872Z,1.05
2022-09-21T16:42:54.215Z,0.50
2022-09-21T16:45:31.600Z,0.50
2022-09-21T16:47:59.413Z,0.40
2022-09-21T16:50:26.311Z,0.32
2022-09-21T16:52:52.774Z,0.52
2022-09-21T16:55:21.161Z,0.70
2022-09-21T16:57:49.115Z,0.75
2022-09-21T17:00:21.965Z,0.30
2022-09-21T17:02:49.450Z,0.30
2022-09-21T17:05:18.000Z,0.65
2022-09-21T17:07:55.592Z,0.43
2022-09-21T17:10:37.125Z,0.35
2022-09-21T17:13:09.017Z,0.20
2022-09-21T17:15:36.805Z,0.30
2022-09-21T17:18:04.002Z,0.60
2022-09-21T17:20:34.744Z,1.27
2022-09-21T17:23:03.025Z,0.35
2022-09-21T17:25:30.939Z,0.50
2022-09-21T17:27:58.264Z,0.60
2022-09-21T17:30:26.616Z,0.60
2022-09-21T17:32:54.069Z,0.45
2022-09-21T17:35:38.028Z,0.50
2022-09-21T17:38:05.609Z,0.52
2022-09-21T17:40:32.698Z,0.52
2022-09-21T17:43:30.277Z,0.60
2022-09-21T17:46:21.725Z,0.50
2022-09-21T17:48:48.514Z,1.05
2022-09-21T17:51:35.142Z,0.68
2022-09-21T17:54:01.817Z,0.73
2022-09-21T17:56:51.330Z,0.75
2022-09-21T17:59:33.144Z,0.65
2022-09-21T18:02:00.969Z,0.35
2022-09-21T18:04:34.823Z,0.57
2022-09-21T18:09:28.275Z,0.95
2022-09-21T18:11:58.125Z,0.77
2022-09-21T18:14:41.849Z,0.55
2022-09-21T18:17:52.335Z,0.73
2022-09-21T18:20:41.666Z,0.57
2022-09-21T18:23:37.374Z,8.02
2022-09-21T18:32:39.594Z,5.25
2022-09-21T18:35:31.317Z,1.15
2022-09-21T18:38:34.616Z,7.05
2022-09-21T18:41:05.341Z,6.50
2022-09-21T18:43:47.405Z,4.20
2022-09-21T18:46:18.777Z,5.68
2022-09-21T18:49:11.559Z,4.95
2022-09-21T18:51:51.772Z,2.55
2022-09-21T18:54:21.365Z,3.63
2022-09-21T18:56:48.715Z,1.13
2022-09-21T18:59:16.395Z,2.10
2022-09-21T19:01:44.797Z,1.60
2022-09-21T19:04:14.213Z,1.20
2022-09-21T19:07:10.426Z,1.35
2022-09-21T19:10:07.585Z,1.00
2022-09-21T19:12:40.126Z,0.70
2022-09-21T19:15:55.589Z,0.90
2022-09-21T19:18:45.165Z,1.10
2022-09-21T19:21:40.225Z,1.30
2022-09-21T19:24:13.279Z,0.90
2022-09-21T19:27:03.315Z,0.70
2022-09-21T19:29:58.476Z,0.60
2022-09-21T19:32:36.385Z,0.90
2022-09-21T19:35:16.815Z,1.08
2022-09-21T19:37:43.776Z,1.73
2022-09-21T19:40:11.031Z,2.17
2022-09-21T19:43:11.403Z,2.28
2022-09-21T19:45:47.300Z,2.90
2022-09-21T19:48:16.025Z,2.35
2022-09-21T19:50:54.445Z,3.15
2022-09-21T19:53:41.068Z,2.55
2022-09-21T19:56:32.853Z,2.53
2022-09-21T19:59:18.584Z,2.22
2022-09-21T20:01:53.546Z,2.22
2022-09-21T20:04:40.554Z,2.55
2022-09-21T20:07:29.999Z,3.00
2022-09-21T20:10:22.875Z,1.23
2022-09-21T20:13:05.351Z,1.95
2022-09-21T20:15:41.652Z,1.55
2022-09-21T20:18:28.567Z,3.22
2022-09-21T20:20:55.236Z,2.80
2022-09-21T20:23:21.895Z,1.98
2022-09-21T20:25:54.576Z,1.30
2022-09-21T20:28:21.958Z,3.88
2022-09-21T20:30:50.055Z,2.75
2022-09-21T20:33:22.759Z,2.97
2022-09-21T20:35:50.533Z,2.90
2022-09-21T20:38:18.395Z,2.72
2022-09-21T20:40:45.535Z,2.53
2022-09-21T20:43:14.143Z,4.88
2022-09-21T20:45:41.070Z,2.90
2022-09-21T20:48:17.545Z,2.80
2022-09-21T20:50:46.676Z,2.40
2022-09-21T20:53:13.486Z,2.33
2022-09-21T20:55:41.158Z,2.60
2022-09-21T20:58:11.452Z,2.50
2022-09-21T21:00:38.120Z,3.45
2022-09-21T21:03:05.222Z,2.28
2022-09-21T21:05:32.032Z,2.65
2022-09-21T21:07:58.442Z,2.58
2022-09-21T21:10:25.407Z,2.92
2022-09-21T21:12:51.854Z,1.92
2022-09-21T21:15:19.498Z,1.92
2022-09-21T21:17:47.753Z,1.65
2022-09-21T21:20:16.201Z,1.30
2022-09-21T21:22:43.874Z,1.15
2022-09-21T21:25:10.981Z,1.30
2022-09-21T21:27:37.758Z,1.10
2022-09-21T21:30:04.999Z,2.97
2022-09-21T21:32:32.492Z,2.75
2022-09-21T21:34:59.247Z,1.50
2022-09-21T21:37:30.007Z,2.03
2022-09-21T21:39:56.995Z,2.10
2022-09-21T21:42:24.850Z,2.70
2022-09-21T21:44:51.521Z,1.92
2022-09-21T21:47:38.679Z,2.10
2022-09-21T21:50:05.395Z,1.45
2022-09-21T21:52:31.839Z,1.70
2022-09-21T21:54:58.294Z,1.58
2022-09-21T21:57:24.748Z,1.40
2022-09-21T21:59:51.197Z,1.55
